Millersville, MD (21108)

8:58 PM EDT on June 02, 2015 (GMT -0400)
MID-ATLANTIC TOWER | | Change Station
CLOSE
Current Station
Personal Weather Station
Location: Millersville, MD
Elevation: 125 ft
Nearby Weather Stations

Elev 125 ft 39.10 °N, 76.62 °W | Updated 2 seconds ago

Mostly Cloudy
Mostly Cloudy
57.9 °F
Feels Like 57.9 °F
N
0.0
Wind Variable Wind from NE

Today
High -- | Low -- °F
--% Chance of Precip.
Yesterday
High -- | Low -- °F
Precip. -- in
5:42 AM 8:27 PM
Full, 100% visible
Pressure 30.11 in
Visibility 10.0 miles
Clouds Scattered Clouds 700 ft
Overcast 1400 ft
Dew Point 55 °F
Humidity 89%
Rainfall 0.00 in
Snow Depth Not available.
UV 0.0 out of 12
Pollen .20 out of 12
Air Quality Not available.
Flu Activity Sporadic
METAR KBWI 022354Z 04007KT 10SM SCT007 OVC014 14/13 A3011 RMK AO2 RAE27 SLP194 P0000 60001 T01440128 10150 20139 51007

More Conditions Fewer Conditions

Pressure 30.11 in
Visibility 10.0 miles
Clouds Scattered Clouds 700 ft
Overcast 1400 ft
Dew Point 55 °F
Humidity 89%
Rainfall 0.00 in
Snow Depth Not available.
UV 0.0 out of 12
Pollen .20 out of 12
Air Quality Not available.
Flu Activity Sporadic
METAR KBWI 022354Z 04007KT 10SM SCT007 OVC014 14/13 A3011 RMK AO2 RAE27 SLP194 P0000 60001 T01440128 10150 20139 51007

More Conditions Fewer Conditions

10-Day Weather Forecast

×

Almanac

Astronomy

Jun. 02, 2015 Rise Set
Actual Time
Civil Twilight
Nautical Twilight
Astronomical Twilight
Moon
Length of Visible Light
Length of Day
Tomorrow will be .
, % of the Moon is Illuminated

Today's Extremes

State Highs State Lows

Community

WunderPhotos

Upload Photos

1,826,077 photos uploaded!

WunderBlogs® & News

Nearby

Air Quality

  Air Quality AQ Index Pollutant
Not available.

Snow Depth

Station Depth Elevation

Earthquake Activity

City Distance Mag. Time & Date
Minimum magnitude displayed is 2.5.

Coastal Water Temperatures

Place Temperature

Stations

Nearby Weather Stations

Station Location Temp. Windchill Dew Point Humidity Wind Precip. Elev Updated Type